Terminal Aerodrome Forecast
Issued by NWS

Current Version | Previous Version | Text Only | Print | Product List | Glossary On
Versions: 1 2 3 4 5 6 7 8 9 10 11 12 13 14 15 16 17
000
FTUS46 KPQR 251734
TAFONP
TAF
KONP 251734Z 2518/2618 20008KT P6SM SCT006
     FM251900 21011KT 5SM BR OVC005
     FM260000 22011KT 2SM BR OVC004
     FM261000 20007KT 5SM BR OVC010=

USA.gov is the U.S. government's official web portal to all federal, state and local government web resources and services.